sensor_id;sensor_type;location;lat;lon;timestamp;P1;durP1;ratioP1;P2;durP2;ratioP2
64789;SDS011;51223;51.816;5.862;2023-07-20T00:01:30;3.97;;;2.20;;
64789;SDS011;51223;51.816;5.862;2023-07-20T00:03:56;4.38;;;2.55;;
64789;SDS011;51223;51.816;5.862;2023-07-20T00:06:22;4.80;;;2.58;;
64789;SDS011;51223;51.816;5.862;2023-07-20T00:08:48;8.93;;;2.75;;
64789;SDS011;51223;51.816;5.862;2023-07-20T00:11:13;3.97;;;2.80;;
64789;SDS011;51223;51.816;5.862;2023-07-20T00:13:39;4.45;;;2.53;;
64789;SDS011;51223;51.816;5.862;2023-07-20T00:16:05;3.60;;;2.40;;
64789;SDS011;51223;51.816;5.862;2023-07-20T00:18:30;3.20;;;2.35;;
64789;SDS011;51223;51.816;5.862;2023-07-20T00:20:56;2.60;;;1.98;;
64789;SDS011;51223;51.816;5.862;2023-07-20T00:23:21;3.22;;;2.35;;
64789;SDS011;51223;51.816;5.862;2023-07-20T00:25:50;4.72;;;2.88;;
64789;SDS011;51223;51.816;5.862;2023-07-20T00:28:16;3.45;;;2.50;;
64789;SDS011;51223;51.816;5.862;2023-07-20T00:30:42;5.72;;;2.00;;
64789;SDS011;51223;51.816;5.862;2023-07-20T00:33:10;3.50;;;2.22;;
64789;SDS011;51223;51.816;5.862;2023-07-20T00:35:37;3.22;;;2.65;;
64789;SDS011;51223;51.816;5.862;2023-07-20T00:38:03;4.68;;;2.88;;
64789;SDS011;51223;51.816;5.862;2023-07-20T00:40:35;5.88;;;3.03;;
64789;SDS011;51223;51.816;5.862;2023-07-20T00:43:00;4.55;;;2.40;;
64789;SDS011;51223;51.816;5.862;2023-07-20T00:45:26;1.27;;;1.17;;
64789;SDS011;51223;51.816;5.862;2023-07-20T00:47:52;2.95;;;2.20;;
64789;SDS011;51223;51.816;5.862;2023-07-20T00:50:17;1.23;;;1.10;;
64789;SDS011;51223;51.816;5.862;2023-07-20T00:52:43;6.72;;;0.95;;
64789;SDS011;51223;51.816;5.862;2023-07-20T00:55:09;1.13;;;1.05;;
64789;SDS011;51223;51.816;5.862;2023-07-20T00:57:35;8.20;;;1.63;;
64789;SDS011;51223;51.816;5.862;2023-07-20T01:00:01;1.40;;;1.30;;
64789;SDS011;51223;51.816;5.862;2023-07-20T01:02:27;4.68;;;2.80;;
64789;SDS011;51223;51.816;5.862;2023-07-20T01:04:52;3.45;;;2.67;;
64789;SDS011;51223;51.816;5.862;2023-07-20T01:09:45;9.93;;;3.83;;
64789;SDS011;51223;51.816;5.862;2023-07-20T01:12:22;2.80;;;1.90;;
64789;SDS011;51223;51.816;5.862;2023-07-20T01:14:49;3.08;;;2.25;;
64789;SDS011;51223;51.816;5.862;2023-07-20T01:17:15;3.78;;;2.58;;
64789;SDS011;51223;51.816;5.862;2023-07-20T01:19:40;2.80;;;1.63;;
64789;SDS011;51223;51.816;5.862;2023-07-20T01:22:13;2.90;;;1.73;;
64789;SDS011;51223;51.816;5.862;2023-07-20T01:30:16;0.98;;;0.95;;
64789;SDS011;51223;51.816;5.862;2023-07-20T01:32:43;1.83;;;1.45;;
64789;SDS011;51223;51.816;5.862;2023-07-20T01:35:10;4.13;;;1.45;;
64789;SDS011;51223;51.816;5.862;2023-07-20T01:37:40;1.25;;;0.95;;
64789;SDS011;51223;51.816;5.862;2023-07-20T01:40:07;4.30;;;2.03;;
64789;SDS011;51223;51.816;5.862;2023-07-20T01:42:33;3.40;;;2.00;;
64789;SDS011;51223;51.816;5.862;2023-07-20T01:44:58;4.68;;;1.70;;
64789;SDS011;51223;51.816;5.862;2023-07-20T01:47:24;1.73;;;1.40;;
64789;SDS011;51223;51.816;5.862;2023-07-20T01:49:50;4.25;;;2.10;;
64789;SDS011;51223;51.816;5.862;2023-07-20T01:52:15;2.28;;;1.67;;
64789;SDS011;51223;51.816;5.862;2023-07-20T01:54:41;4.00;;;2.13;;
64789;SDS011;51223;51.816;5.862;2023-07-20T01:57:06;5.05;;;1.30;;
64789;SDS011;51223;51.816;5.862;2023-07-20T01:59:32;7.88;;;2.47;;
64789;SDS011;51223;51.816;5.862;2023-07-20T02:01:57;0.77;;;0.63;;
64789;SDS011;51223;51.816;5.862;2023-07-20T02:04:23;2.33;;;1.58;;
64789;SDS011;51223;51.816;5.862;2023-07-20T02:06:49;1.85;;;1.50;;
64789;SDS011;51223;51.816;5.862;2023-07-20T02:09:14;2.10;;;1.58;;
64789;SDS011;51223;51.816;5.862;2023-07-20T02:11:40;2.30;;;1.40;;
64789;SDS011;51223;51.816;5.862;2023-07-20T02:14:05;0.90;;;0.77;;
64789;SDS011;51223;51.816;5.862;2023-07-20T02:16:31;0.60;;;0.60;;
64789;SDS011;51223;51.816;5.862;2023-07-20T02:18:56;3.80;;;1.52;;
64789;SDS011;51223;51.816;5.862;2023-07-20T02:21:23;1.05;;;0.85;;
64789;SDS011;51223;51.816;5.862;2023-07-20T02:23:49;1.77;;;1.08;;
64789;SDS011;51223;51.816;5.862;2023-07-20T02:26:15;1.10;;;1.00;;
64789;SDS011;51223;51.816;5.862;2023-07-20T02:28:40;6.47;;;1.40;;
64789;SDS011;51223;51.816;5.862;2023-07-20T02:31:06;1.48;;;1.20;;
64789;SDS011;51223;51.816;5.862;2023-07-20T02:33:32;1.98;;;1.45;;
64789;SDS011;51223;51.816;5.862;2023-07-20T02:35:58;1.55;;;1.30;;
64789;SDS011;51223;51.816;5.862;2023-07-20T02:38:23;1.38;;;0.80;;
64789;SDS011;51223;51.816;5.862;2023-07-20T02:40:49;1.42;;;1.00;;
64789;SDS011;51223;51.816;5.862;2023-07-20T02:43:15;11.25;;;1.52;;
64789;SDS011;51223;51.816;5.862;2023-07-20T02:45:41;5.22;;;0.68;;
64789;SDS011;51223;51.816;5.862;2023-07-20T02:48:09;0.00;;;0.00;;
64789;SDS011;51223;51.816;5.862;2023-07-20T02:50:35;3.53;;;0.95;;
64789;SDS011;51223;51.816;5.862;2023-07-20T02:53:02;0.80;;;0.80;;
64789;SDS011;51223;51.816;5.862;2023-07-20T02:55:27;1.67;;;0.93;;
64789;SDS011;51223;51.816;5.862;2023-07-20T02:57:53;0.40;;;0.40;;
64789;SDS011;51223;51.816;5.862;2023-07-20T03:00:19;2.03;;;0.90;;
64789;SDS011;51223;51.816;5.862;2023-07-20T03:02:48;1.30;;;1.15;;
64789;SDS011;51223;51.816;5.862;2023-07-20T03:05:14;2.70;;;1.35;;
64789;SDS011;51223;51.816;5.862;2023-07-20T03:07:40;2.25;;;1.55;;
64789;SDS011;51223;51.816;5.862;2023-07-20T03:10:07;2.50;;;1.48;;
64789;SDS011;51223;51.816;5.862;2023-07-20T03:12:34;2.38;;;1.52;;
64789;SDS011;51223;51.816;5.862;2023-07-20T03:15:00;1.42;;;0.90;;
64789;SDS011;51223;51.816;5.862;2023-07-20T03:17:25;3.55;;;1.45;;
64789;SDS011;51223;51.816;5.862;2023-07-20T03:19:51;1.70;;;1.55;;
64789;SDS011;51223;51.816;5.862;2023-07-20T03:22:17;1.25;;;1.15;;
64789;SDS011;51223;51.816;5.862;2023-07-20T03:24:42;0.57;;;0.57;;
64789;SDS011;51223;51.816;5.862;2023-07-20T03:27:08;0.50;;;0.50;;
64789;SDS011;51223;51.816;5.862;2023-07-20T03:29:34;1.40;;;0.70;;
64789;SDS011;51223;51.816;5.862;2023-07-20T03:32:00;1.52;;;1.02;;
64789;SDS011;51223;51.816;5.862;2023-07-20T03:34:25;1.23;;;0.93;;
64789;SDS011;51223;51.816;5.862;2023-07-20T03:36:51;3.00;;;1.10;;
64789;SDS011;51223;51.816;5.862;2023-07-20T03:39:18;2.05;;;1.20;;
64789;SDS011;51223;51.816;5.862;2023-07-20T03:41:44;1.20;;;1.10;;
64789;SDS011;51223;51.816;5.862;2023-07-20T03:44:10;0.93;;;0.80;;
64789;SDS011;51223;51.816;5.862;2023-07-20T03:46:35;1.17;;;1.02;;
64789;SDS011;51223;51.816;5.862;2023-07-20T03:49:01;1.48;;;1.13;;
64789;SDS011;51223;51.816;5.862;2023-07-20T03:51:27;1.20;;;1.00;;
64789;SDS011;51223;51.816;5.862;2023-07-20T03:53:52;1.80;;;1.15;;
64789;SDS011;51223;51.816;5.862;2023-07-20T03:56:18;1.40;;;1.23;;
64789;SDS011;51223;51.816;5.862;2023-07-20T03:58:43;2.88;;;1.17;;
64789;SDS011;51223;51.816;5.862;2023-07-20T04:01:09;1.20;;;1.08;;
64789;SDS011;51223;51.816;5.862;2023-07-20T04:03:35;1.35;;;1.20;;
64789;SDS011;51223;51.816;5.862;2023-07-20T04:06:01;1.80;;;1.25;;
64789;SDS011;51223;51.816;5.862;2023-07-20T04:08:27;2.33;;;1.30;;
64789;SDS011;51223;51.816;5.862;2023-07-20T04:10:53;2.67;;;1.80;;
64789;SDS011;51223;51.816;5.862;2023-07-20T04:13:18;1.63;;;1.30;;
64789;SDS011;51223;51.816;5.862;2023-07-20T04:15:44;4.82;;;1.30;;
64789;SDS011;51223;51.816;5.862;2023-07-20T04:18:10;2.65;;;1.45;;
64789;SDS011;51223;51.816;5.862;2023-07-20T04:20:35;2.05;;;1.05;;
64789;SDS011;51223;51.816;5.862;2023-07-20T04:23:01;1.00;;;0.93;;
64789;SDS011;51223;51.816;5.862;2023-07-20T04:25:26;1.65;;;1.25;;
64789;SDS011;51223;51.816;5.862;2023-07-20T04:27:52;1.90;;;1.00;;
64789;SDS011;51223;51.816;5.862;2023-07-20T04:30:18;1.70;;;1.20;;
64789;SDS011;51223;51.816;5.862;2023-07-20T04:32:48;4.10;;;1.20;;
64789;SDS011;51223;51.816;5.862;2023-07-20T04:35:16;1.85;;;1.40;;
64789;SDS011;51223;51.816;5.862;2023-07-20T04:37:42;1.35;;;0.90;;
64789;SDS011;51223;51.816;5.862;2023-07-20T04:40:12;1.88;;;1.08;;
64789;SDS011;51223;51.816;5.862;2023-07-20T04:42:38;1.70;;;1.30;;
64789;SDS011;51223;51.816;5.862;2023-07-20T04:45:04;1.45;;;0.88;;
64789;SDS011;51223;51.816;5.862;2023-07-20T04:47:29;1.20;;;1.08;;
64789;SDS011;51223;51.816;5.862;2023-07-20T04:49:55;2.78;;;1.45;;
64789;SDS011;51223;51.816;5.862;2023-07-20T04:52:21;3.25;;;1.63;;
64789;SDS011;51223;51.816;5.862;2023-07-20T04:54:46;1.20;;;1.10;;
64789;SDS011;51223;51.816;5.862;2023-07-20T04:57:12;1.80;;;1.15;;
64789;SDS011;51223;51.816;5.862;2023-07-20T04:59:38;2.17;;;1.45;;
64789;SDS011;51223;51.816;5.862;2023-07-20T05:02:04;0.20;;;0.20;;
64789;SDS011;51223;51.816;5.862;2023-07-20T05:04:29;1.10;;;1.00;;
64789;SDS011;51223;51.816;5.862;2023-07-20T05:06:55;1.52;;;1.20;;
64789;SDS011;51223;51.816;5.862;2023-07-20T05:09:20;4.25;;;0.82;;
64789;SDS011;51223;51.816;5.862;2023-07-20T05:11:46;1.88;;;0.90;;
64789;SDS011;51223;51.816;5.862;2023-07-20T05:14:13;2.90;;;1.40;;
64789;SDS011;51223;51.816;5.862;2023-07-20T05:16:39;1.50;;;1.30;;
64789;SDS011;51223;51.816;5.862;2023-07-20T05:19:04;0.70;;;0.60;;
64789;SDS011;51223;51.816;5.862;2023-07-20T05:21:30;2.38;;;0.98;;
64789;SDS011;51223;51.816;5.862;2023-07-20T05:23:56;0.85;;;0.50;;
64789;SDS011;51223;51.816;5.862;2023-07-20T05:26:21;2.60;;;1.17;;
64789;SDS011;51223;51.816;5.862;2023-07-20T05:28:47;2.58;;;1.20;;
64789;SDS011;51223;51.816;5.862;2023-07-20T05:31:12;1.30;;;1.13;;
64789;SDS011;51223;51.816;5.862;2023-07-20T05:33:38;1.90;;;1.27;;
64789;SDS011;51223;51.816;5.862;2023-07-20T05:36:04;1.33;;;1.13;;
64789;SDS011;51223;51.816;5.862;2023-07-20T05:38:29;0.95;;;0.93;;
64789;SDS011;51223;51.816;5.862;2023-07-20T05:40:58;1.67;;;1.35;;
64789;SDS011;51223;51.816;5.862;2023-07-20T05:43:24;0.85;;;0.82;;
64789;SDS011;51223;51.816;5.862;2023-07-20T05:45:50;1.95;;;1.10;;
64789;SDS011;51223;51.816;5.862;2023-07-20T05:48:15;1.10;;;0.93;;
64789;SDS011;51223;51.816;5.862;2023-07-20T05:50:42;0.60;;;0.60;;
64789;SDS011;51223;51.816;5.862;2023-07-20T05:53:08;0.45;;;0.45;;
64789;SDS011;51223;51.816;5.862;2023-07-20T05:55:34;2.72;;;1.70;;
64789;SDS011;51223;51.816;5.862;2023-07-20T05:57:59;0.50;;;0.50;;
64789;SDS011;51223;51.816;5.862;2023-07-20T06:00:25;0.88;;;0.75;;
64789;SDS011;51223;51.816;5.862;2023-07-20T06:02:52;2.55;;;1.25;;
64789;SDS011;51223;51.816;5.862;2023-07-20T06:05:18;1.10;;;0.90;;
64789;SDS011;51223;51.816;5.862;2023-07-20T06:07:45;1.23;;;1.00;;
64789;SDS011;51223;51.816;5.862;2023-07-20T06:10:11;2.40;;;0.82;;
64789;SDS011;51223;51.816;5.862;2023-07-20T06:12:36;0.73;;;0.60;;
64789;SDS011;51223;51.816;5.862;2023-07-20T06:15:02;0.15;;;0.10;;
64789;SDS011;51223;51.816;5.862;2023-07-20T06:17:29;1.98;;;0.93;;
64789;SDS011;51223;51.816;5.862;2023-07-20T06:19:54;0.50;;;0.50;;
64789;SDS011;51223;51.816;5.862;2023-07-20T06:22:20;1.52;;;0.60;;
64789;SDS011;51223;51.816;5.862;2023-07-20T06:24:46;0.13;;;0.13;;
64789;SDS011;51223;51.816;5.862;2023-07-20T06:27:11;0.73;;;0.52;;
64789;SDS011;51223;51.816;5.862;2023-07-20T06:29:37;0.45;;;0.38;;
64789;SDS011;51223;51.816;5.862;2023-07-20T06:32:04;1.23;;;0.38;;
64789;SDS011;51223;51.816;5.862;2023-07-20T06:34:30;1.73;;;0.85;;
64789;SDS011;51223;51.816;5.862;2023-07-20T06:36:56;1.42;;;0.90;;
64789;SDS011;51223;51.816;5.862;2023-07-20T06:39:22;0.43;;;0.43;;
64789;SDS011;51223;51.816;5.862;2023-07-20T06:41:48;0.88;;;0.63;;
64789;SDS011;51223;51.816;5.862;2023-07-20T06:44:13;1.00;;;0.70;;
64789;SDS011;51223;51.816;5.862;2023-07-20T06:46:39;0.75;;;0.60;;
64789;SDS011;51223;51.816;5.862;2023-07-20T06:49:07;0.32;;;0.25;;
64789;SDS011;51223;51.816;5.862;2023-07-20T06:51:33;2.03;;;0.45;;
64789;SDS011;51223;51.816;5.862;2023-07-20T06:53:59;0.73;;;0.52;;
64789;SDS011;51223;51.816;5.862;2023-07-20T06:56:24;2.03;;;0.40;;
64789;SDS011;51223;51.816;5.862;2023-07-20T06:58:50;0.43;;;0.43;;
64789;SDS011;51223;51.816;5.862;2023-07-20T07:01:15;0.50;;;0.50;;
64789;SDS011;51223;51.816;5.862;2023-07-20T07:03:42;1.08;;;0.60;;
64789;SDS011;51223;51.816;5.862;2023-07-20T07:06:09;7.40;;;0.35;;
64789;SDS011;51223;51.816;5.862;2023-07-20T07:08:35;0.40;;;0.40;;
64789;SDS011;51223;51.816;5.862;2023-07-20T07:11:01;0.75;;;0.57;;
64789;SDS011;51223;51.816;5.862;2023-07-20T07:13:26;0.52;;;0.45;;
64789;SDS011;51223;51.816;5.862;2023-07-20T07:15:52;0.40;;;0.40;;
64789;SDS011;51223;51.816;5.862;2023-07-20T07:18:17;1.15;;;0.60;;
64789;SDS011;51223;51.816;5.862;2023-07-20T07:20:52;0.40;;;0.40;;
64789;SDS011;51223;51.816;5.862;2023-07-20T07:23:17;0.35;;;0.28;;
64789;SDS011;51223;51.816;5.862;2023-07-20T07:25:43;0.10;;;0.10;;
64789;SDS011;51223;51.816;5.862;2023-07-20T07:28:09;0.20;;;0.20;;
64789;SDS011;51223;51.816;5.862;2023-07-20T07:30:35;0.30;;;0.30;;
64789;SDS011;51223;51.816;5.862;2023-07-20T07:33:00;0.45;;;0.40;;
64789;SDS011;51223;51.816;5.862;2023-07-20T07:35:26;1.40;;;0.35;;
64789;SDS011;51223;51.816;5.862;2023-07-20T07:37:51;0.30;;;0.30;;
64789;SDS011;51223;51.816;5.862;2023-07-20T07:40:17;0.55;;;0.55;;
64789;SDS011;51223;51.816;5.862;2023-07-20T07:42:43;0.70;;;0.50;;
64789;SDS011;51223;51.816;5.862;2023-07-20T07:45:09;0.57;;;0.20;;
64789;SDS011;51223;51.816;5.862;2023-07-20T07:47:35;1.60;;;0.55;;
64789;SDS011;51223;51.816;5.862;2023-07-20T07:50:01;0.65;;;0.40;;
64789;SDS011;51223;51.816;5.862;2023-07-20T07:52:26;0.70;;;0.52;;
64789;SDS011;51223;51.816;5.862;2023-07-20T07:54:52;0.30;;;0.30;;
64789;SDS011;51223;51.816;5.862;2023-07-20T07:57:17;1.80;;;0.63;;
64789;SDS011;51223;51.816;5.862;2023-07-20T07:59:43;0.30;;;0.30;;
64789;SDS011;51223;51.816;5.862;2023-07-20T08:02:09;0.73;;;0.40;;
64789;SDS011;51223;51.816;5.862;2023-07-20T08:04:35;0.98;;;0.57;;
64789;SDS011;51223;51.816;5.862;2023-07-20T08:07:03;0.60;;;0.30;;
64789;SDS011;51223;51.816;5.862;2023-07-20T08:09:29;0.65;;;0.40;;
64789;SDS011;51223;51.816;5.862;2023-07-20T08:11:54;0.88;;;0.52;;
64789;SDS011;51223;51.816;5.862;2023-07-20T08:14:20;1.05;;;0.38;;
64789;SDS011;51223;51.816;5.862;2023-07-20T08:16:45;1.00;;;0.70;;
64789;SDS011;51223;51.816;5.862;2023-07-20T08:19:12;1.75;;;0.70;;
64789;SDS011;51223;51.816;5.862;2023-07-20T08:21:38;0.85;;;0.43;;
64789;SDS011;51223;51.816;5.862;2023-07-20T08:24:03;0.60;;;0.30;;
64789;SDS011;51223;51.816;5.862;2023-07-20T08:26:29;0.65;;;0.65;;
64789;SDS011;51223;51.816;5.862;2023-07-20T08:28:55;0.50;;;0.50;;
64789;SDS011;51223;51.816;5.862;2023-07-20T08:31:20;0.40;;;0.40;;
64789;SDS011;51223;51.816;5.862;2023-07-20T08:33:46;0.20;;;0.20;;
64789;SDS011;51223;51.816;5.862;2023-07-20T08:36:12;0.80;;;0.40;;
64789;SDS011;51223;51.816;5.862;2023-07-20T08:38:38;1.02;;;0.80;;
64789;SDS011;51223;51.816;5.862;2023-07-20T08:41:03;0.95;;;0.40;;
64789;SDS011;51223;51.816;5.862;2023-07-20T08:43:29;1.10;;;0.65;;
64789;SDS011;51223;51.816;5.862;2023-07-20T08:45:55;1.10;;;0.50;;
64789;SDS011;51223;51.816;5.862;2023-07-20T08:48:21;0.30;;;0.30;;
64789;SDS011;51223;51.816;5.862;2023-07-20T08:50:51;0.90;;;0.40;;
64789;SDS011;51223;51.816;5.862;2023-07-20T08:53:17;2.08;;;0.60;;
64789;SDS011;51223;51.816;5.862;2023-07-20T08:55:44;0.50;;;0.30;;
64789;SDS011;51223;51.816;5.862;2023-07-20T08:58:10;0.60;;;0.60;;
64789;SDS011;51223;51.816;5.862;2023-07-20T09:00:37;0.43;;;0.38;;
64789;SDS011;51223;51.816;5.862;2023-07-20T09:03:02;0.40;;;0.40;;
64789;SDS011;51223;51.816;5.862;2023-07-20T09:05:28;0.28;;;0.28;;
64789;SDS011;51223;51.816;5.862;2023-07-20T09:07:54;0.43;;;0.17;;
64789;SDS011;51223;51.816;5.862;2023-07-20T09:10:20;0.13;;;0.13;;
64789;SDS011;51223;51.816;5.862;2023-07-20T09:12:46;0.32;;;0.32;;
64789;SDS011;51223;51.816;5.862;2023-07-20T09:15:12;0.30;;;0.30;;
64789;SDS011;51223;51.816;5.862;2023-07-20T09:17:37;1.83;;;0.65;;
64789;SDS011;51223;51.816;5.862;2023-07-20T09:20:06;2.35;;;0.60;;
64789;SDS011;51223;51.816;5.862;2023-07-20T09:22:38;1.98;;;0.65;;
64789;SDS011;51223;51.816;5.862;2023-07-20T09:25:07;1.10;;;0.65;;
64789;SDS011;51223;51.816;5.862;2023-07-20T09:27:42;0.30;;;0.30;;
64789;SDS011;51223;51.816;5.862;2023-07-20T09:30:08;0.60;;;0.60;;
64789;SDS011;51223;51.816;5.862;2023-07-20T09:32:42;1.27;;;0.63;;
64789;SDS011;51223;51.816;5.862;2023-07-20T09:35:18;0.93;;;0.50;;
64789;SDS011;51223;51.816;5.862;2023-07-20T09:37:50;0.90;;;0.40;;
64789;SDS011;51223;51.816;5.862;2023-07-20T09:40:17;0.30;;;0.30;;
64789;SDS011;51223;51.816;5.862;2023-07-20T09:42:43;1.25;;;0.70;;
64789;SDS011;51223;51.816;5.862;2023-07-20T09:45:09;0.30;;;0.30;;
64789;SDS011;51223;51.816;5.862;2023-07-20T09:47:37;0.32;;;0.32;;
64789;SDS011;51223;51.816;5.862;2023-07-20T09:50:03;0.40;;;0.40;;
64789;SDS011;51223;51.816;5.862;2023-07-20T09:52:29;0.47;;;0.47;;
64789;SDS011;51223;51.816;5.862;2023-07-20T09:54:55;1.80;;;0.43;;
64789;SDS011;51223;51.816;5.862;2023-07-20T09:57:21;2.03;;;0.80;;
64789;SDS011;51223;51.816;5.862;2023-07-20T09:59:47;0.47;;;0.47;;
64789;SDS011;51223;51.816;5.862;2023-07-20T10:02:25;0.47;;;0.35;;
64789;SDS011;51223;51.816;5.862;2023-07-20T10:04:52;0.45;;;0.40;;
64789;SDS011;51223;51.816;5.862;2023-07-20T10:07:19;1.58;;;0.80;;
64789;SDS011;51223;51.816;5.862;2023-07-20T10:09:48;1.27;;;0.50;;
64789;SDS011;51223;51.816;5.862;2023-07-20T10:12:14;0.22;;;0.22;;
64789;SDS011;51223;51.816;5.862;2023-07-20T10:14:41;0.20;;;0.20;;
64789;SDS011;51223;51.816;5.862;2023-07-20T10:17:07;0.85;;;0.60;;
64789;SDS011;51223;51.816;5.862;2023-07-20T10:19:43;2.50;;;0.95;;
64789;SDS011;51223;51.816;5.862;2023-07-20T10:22:33;0.60;;;0.43;;
64789;SDS011;51223;51.816;5.862;2023-07-20T10:24:55;0.70;;;0.40;;
64789;SDS011;51223;51.816;5.862;2023-07-20T10:27:24;3.78;;;0.60;;
64789;SDS011;51223;51.816;5.862;2023-07-20T10:29:50;0.73;;;0.73;;
64789;SDS011;51223;51.816;5.862;2023-07-20T10:32:16;0.73;;;0.43;;
64789;SDS011;51223;51.816;5.862;2023-07-20T10:34:42;0.57;;;0.45;;
64789;SDS011;51223;51.816;5.862;2023-07-20T10:37:07;0.73;;;0.60;;
64789;SDS011;51223;51.816;5.862;2023-07-20T10:39:33;0.00;;;0.00;;
64789;SDS011;51223;51.816;5.862;2023-07-20T10:42:00;0.32;;;0.30;;
64789;SDS011;51223;51.816;5.862;2023-07-20T10:44:26;0.65;;;0.32;;
64789;SDS011;51223;51.816;5.862;2023-07-20T10:46:51;0.40;;;0.40;;
64789;SDS011;51223;51.816;5.862;2023-07-20T10:49:24;0.08;;;0.08;;
64789;SDS011;51223;51.816;5.862;2023-07-20T10:52:13;0.40;;;0.40;;
64789;SDS011;51223;51.816;5.862;2023-07-20T10:54:46;1.27;;;0.82;;
64789;SDS011;51223;51.816;5.862;2023-07-20T10:57:22;8.57;;;0.40;;
64789;SDS011;51223;51.816;5.862;2023-07-20T10:59:48;0.17;;;0.17;;
64789;SDS011;51223;51.816;5.862;2023-07-20T11:02:17;1.00;;;0.30;;
64789;SDS011;51223;51.816;5.862;2023-07-20T11:04:43;0.25;;;0.25;;
64789;SDS011;51223;51.816;5.862;2023-07-20T11:07:09;0.28;;;0.28;;
64789;SDS011;51223;51.816;5.862;2023-07-20T11:09:35;0.82;;;0.43;;
64789;SDS011;51223;51.816;5.862;2023-07-20T11:12:10;0.60;;;0.60;;
64789;SDS011;51223;51.816;5.862;2023-07-20T11:14:40;0.50;;;0.50;;
64789;SDS011;51223;51.816;5.862;2023-07-20T11:17:13;0.30;;;0.30;;
64789;SDS011;51223;51.816;5.862;2023-07-20T11:19:38;0.30;;;0.30;;
64789;SDS011;51223;51.816;5.862;2023-07-20T11:22:04;1.05;;;0.70;;
64789;SDS011;51223;51.816;5.862;2023-07-20T11:24:33;0.20;;;0.20;;
64789;SDS011;51223;51.816;5.862;2023-07-20T11:26:59;0.57;;;0.57;;
64789;SDS011;51223;51.816;5.862;2023-07-20T11:29:25;0.98;;;0.60;;
64789;SDS011;51223;51.816;5.862;2023-07-20T11:31:52;0.50;;;0.50;;
64789;SDS011;51223;51.816;5.862;2023-07-20T11:34:18;1.83;;;1.10;;
64789;SDS011;51223;51.816;5.862;2023-07-20T11:36:45;1.40;;;0.75;;
64789;SDS011;51223;51.816;5.862;2023-07-20T11:39:11;0.22;;;0.22;;
64789;SDS011;51223;51.816;5.862;2023-07-20T11:41:37;0.20;;;0.20;;
64789;SDS011;51223;51.816;5.862;2023-07-20T11:44:04;0.10;;;0.10;;
64789;SDS011;51223;51.816;5.862;2023-07-20T11:46:29;0.50;;;0.50;;
64789;SDS011;51223;51.816;5.862;2023-07-20T11:48:56;0.80;;;0.63;;
64789;SDS011;51223;51.816;5.862;2023-07-20T11:51:22;0.45;;;0.38;;
64789;SDS011;51223;51.816;5.862;2023-07-20T11:53:48;1.85;;;0.77;;
64789;SDS011;51223;51.816;5.862;2023-07-20T11:56:14;0.50;;;0.50;;
64789;SDS011;51223;51.816;5.862;2023-07-20T11:58:45;0.50;;;0.50;;
64789;SDS011;51223;51.816;5.862;2023-07-20T12:01:14;0.65;;;0.65;;
64789;SDS011;51223;51.816;5.862;2023-07-20T12:03:43;3.17;;;1.00;;
64789;SDS011;51223;51.816;5.862;2023-07-20T12:06:12;0.68;;;0.55;;
64789;SDS011;51223;51.816;5.862;2023-07-20T12:08:39;0.10;;;0.10;;
64789;SDS011;51223;51.816;5.862;2023-07-20T12:11:05;0.30;;;0.30;;
64789;SDS011;51223;51.816;5.862;2023-07-20T12:13:37;0.52;;;0.50;;
64789;SDS011;51223;51.816;5.862;2023-07-20T12:16:06;1.08;;;0.98;;
64789;SDS011;51223;51.816;5.862;2023-07-20T12:18:35;1.23;;;0.80;;
64789;SDS011;51223;51.816;5.862;2023-07-20T12:21:01;0.60;;;0.60;;
64789;SDS011;51223;51.816;5.862;2023-07-20T12:23:34;3.13;;;0.45;;
64789;SDS011;51223;51.816;5.862;2023-07-20T12:26:00;0.55;;;0.40;;
64789;SDS011;51223;51.816;5.862;2023-07-20T12:28:25;0.85;;;0.28;;
64789;SDS011;51223;51.816;5.862;2023-07-20T12:30:51;1.20;;;1.10;;
64789;SDS011;51223;51.816;5.862;2023-07-20T12:33:22;0.55;;;0.55;;
64789;SDS011;51223;51.816;5.862;2023-07-20T12:35:48;0.70;;;0.40;;
64789;SDS011;51223;51.816;5.862;2023-07-20T12:38:14;1.33;;;0.75;;
64789;SDS011;51223;51.816;5.862;2023-07-20T12:40:41;1.10;;;1.00;;
64789;SDS011;51223;51.816;5.862;2023-07-20T12:43:07;0.22;;;0.20;;
64789;SDS011;51223;51.816;5.862;2023-07-20T12:45:33;1.08;;;0.90;;
64789;SDS011;51223;51.816;5.862;2023-07-20T12:47:58;0.20;;;0.20;;
64789;SDS011;51223;51.816;5.862;2023-07-20T12:50:24;0.40;;;0.40;;
64789;SDS011;51223;51.816;5.862;2023-07-20T12:52:49;1.02;;;0.82;;
64789;SDS011;51223;51.816;5.862;2023-07-20T12:55:15;0.50;;;0.50;;
64789;SDS011;51223;51.816;5.862;2023-07-20T12:57:41;0.20;;;0.15;;
64789;SDS011;51223;51.816;5.862;2023-07-20T13:00:08;0.50;;;0.50;;
64789;SDS011;51223;51.816;5.862;2023-07-20T13:02:34;2.97;;;0.85;;
64789;SDS011;51223;51.816;5.862;2023-07-20T13:05:01;0.30;;;0.30;;
64789;SDS011;51223;51.816;5.862;2023-07-20T13:07:30;0.70;;;0.70;;
64789;SDS011;51223;51.816;5.862;2023-07-20T13:09:56;1.27;;;0.70;;
64789;SDS011;51223;51.816;5.862;2023-07-20T13:12:22;0.77;;;0.77;;
64789;SDS011;51223;51.816;5.862;2023-07-20T13:14:47;1.63;;;0.98;;
64789;SDS011;51223;51.816;5.862;2023-07-20T13:17:13;0.80;;;0.60;;
64789;SDS011;51223;51.816;5.862;2023-07-20T13:19:38;1.42;;;0.98;;
64789;SDS011;51223;51.816;5.862;2023-07-20T13:22:04;0.60;;;0.60;;
64789;SDS011;51223;51.816;5.862;2023-07-20T13:24:30;0.88;;;0.30;;
64789;SDS011;51223;51.816;5.862;2023-07-20T13:26:55;2.40;;;1.15;;
64789;SDS011;51223;51.816;5.862;2023-07-20T13:29:21;2.28;;;1.33;;
64789;SDS011;51223;51.816;5.862;2023-07-20T13:31:46;1.40;;;1.00;;
64789;SDS011;51223;51.816;5.862;2023-07-20T13:34:12;0.65;;;0.63;;
64789;SDS011;51223;51.816;5.862;2023-07-20T13:36:37;0.70;;;0.70;;
64789;SDS011;51223;51.816;5.862;2023-07-20T13:39:03;0.85;;;0.40;;
64789;SDS011;51223;51.816;5.862;2023-07-20T13:41:30;0.75;;;0.60;;
64789;SDS011;51223;51.816;5.862;2023-07-20T13:43:57;1.20;;;0.90;;
64789;SDS011;51223;51.816;5.862;2023-07-20T13:46:23;0.95;;;0.80;;
64789;SDS011;51223;51.816;5.862;2023-07-20T13:48:48;0.98;;;0.70;;
64789;SDS011;51223;51.816;5.862;2023-07-20T13:51:14;0.55;;;0.55;;
64789;SDS011;51223;51.816;5.862;2023-07-20T13:53:40;0.20;;;0.20;;
64789;SDS011;51223;51.816;5.862;2023-07-20T13:56:06;0.50;;;0.50;;
64789;SDS011;51223;51.816;5.862;2023-07-20T13:58:32;0.40;;;0.40;;
64789;SDS011;51223;51.816;5.862;2023-07-20T14:00:58;0.28;;;0.28;;
64789;SDS011;51223;51.816;5.862;2023-07-20T14:03:23;0.28;;;0.28;;
64789;SDS011;51223;51.816;5.862;2023-07-20T14:05:49;0.80;;;0.70;;
64789;SDS011;51223;51.816;5.862;2023-07-20T14:08:15;2.25;;;0.75;;
64789;SDS011;51223;51.816;5.862;2023-07-20T14:10:41;1.02;;;0.85;;
64789;SDS011;51223;51.816;5.862;2023-07-20T14:13:06;0.70;;;0.70;;
64789;SDS011;51223;51.816;5.862;2023-07-20T14:15:33;1.30;;;0.88;;
64789;SDS011;51223;51.816;5.862;2023-07-20T14:17:59;0.80;;;0.80;;
64789;SDS011;51223;51.816;5.862;2023-07-20T14:20:24;1.98;;;1.20;;
64789;SDS011;51223;51.816;5.862;2023-07-20T14:22:50;2.22;;;1.80;;
64789;SDS011;51223;51.816;5.862;2023-07-20T14:25:15;1.60;;;0.85;;
64789;SDS011;51223;51.816;5.862;2023-07-20T14:27:41;0.55;;;0.50;;
64789;SDS011;51223;51.816;5.862;2023-07-20T14:30:07;0.63;;;0.63;;
64789;SDS011;51223;51.816;5.862;2023-07-20T14:32:34;1.20;;;1.10;;
64789;SDS011;51223;51.816;5.862;2023-07-20T14:35:00;1.13;;;1.00;;
64789;SDS011;51223;51.816;5.862;2023-07-20T14:37:25;1.35;;;1.23;;
64789;SDS011;51223;51.816;5.862;2023-07-20T14:39:51;0.70;;;0.70;;
64789;SDS011;51223;51.816;5.862;2023-07-20T14:42:16;0.60;;;0.60;;
64789;SDS011;51223;51.816;5.862;2023-07-20T14:44:43;0.80;;;0.75;;
64789;SDS011;51223;51.816;5.862;2023-07-20T14:47:08;1.02;;;0.93;;
64789;SDS011;51223;51.816;5.862;2023-07-20T14:49:34;0.10;;;0.10;;
64789;SDS011;51223;51.816;5.862;2023-07-20T14:52:00;2.17;;;1.02;;